createdAt,value
2019-03-25T00:00:46.224Z,99.90
2019-03-25T00:03:26.323Z,99.90
2019-03-25T00:05:55.044Z,99.90
2019-03-25T00:08:23.516Z,99.90
2019-03-25T00:10:53.279Z,99.90
2019-03-25T00:13:24.948Z,99.90
2019-03-25T00:15:53.484Z,99.90
2019-03-25T00:18:26.111Z,99.90
2019-03-25T00:20:55.174Z,99.90
2019-03-25T00:23:25.042Z,99.90
2019-03-25T00:25:53.557Z,99.90
2019-03-25T00:28:22.062Z,99.90
2019-03-25T00:30:50.652Z,99.90
2019-03-25T00:33:19.706Z,99.90
2019-03-25T00:35:48.484Z,99.90
2019-03-25T00:38:18.744Z,99.90
2019-03-25T00:40:47.357Z,99.90
2019-03-25T00:43:19.246Z,99.90
2019-03-25T00:45:47.704Z,99.90
2019-03-25T00:48:17.080Z,99.90
2019-03-25T00:50:47.104Z,99.90
2019-03-25T00:53:17.834Z,99.90
2019-03-25T00:55:49.396Z,99.90
2019-03-25T00:58:18.954Z,99.90
2019-03-25T01:00:48.518Z,99.90
2019-03-25T01:03:18.112Z,99.90
2019-03-25T01:05:46.677Z,99.90
2019-03-25T01:08:15.211Z,99.90
2019-03-25T01:10:45.081Z,99.90
2019-03-25T01:13:13.715Z,99.90
2019-03-25T01:15:44.373Z,99.90
2019-03-25T01:18:17.195Z,99.90
2019-03-25T01:20:43.528Z,99.90
2019-03-25T01:23:11.990Z,99.90
2019-03-25T01:25:42.925Z,99.90
2019-03-25T01:28:11.483Z,99.90
2019-03-25T01:30:41.260Z,99.90
2019-03-25T01:33:13.796Z,99.90
2019-03-25T01:35:42.350Z,99.90
2019-03-25T01:38:10.794Z,99.90
2019-03-25T01:40:39.250Z,99.90
2019-03-25T01:43:07.735Z,99.90
2019-03-25T01:45:36.217Z,99.90
2019-03-25T01:48:04.811Z,99.90
2019-03-25T01:50:33.264Z,99.90
2019-03-25T01:53:03.267Z,99.90
2019-03-25T01:55:31.788Z,99.90
2019-03-25T01:58:01.269Z,99.90
2019-03-25T02:00:29.825Z,99.90
2019-03-25T02:02:58.283Z,99.90
2019-03-25T02:05:28.267Z,99.90
2019-03-25T02:08:01.320Z,99.90
2019-03-25T02:10:29.773Z,99.90
2019-03-25T02:12:58.279Z,99.90
2019-03-25T02:15:26.801Z,99.90
2019-03-25T02:17:55.281Z,99.90
2019-03-25T02:20:26.699Z,99.90
2019-03-25T02:22:57.938Z,99.90
2019-03-25T02:25:26.691Z,99.90
2019-03-25T02:27:56.359Z,99.90
2019-03-25T02:30:24.845Z,99.90
2019-03-25T02:32:56.995Z,99.90
2019-03-25T02:35:30.854Z,99.90
2019-03-25T02:37:59.859Z,99.90
2019-03-25T02:40:29.290Z,99.90
2019-03-25T02:43:17.153Z,99.90
2019-03-25T02:45:46.843Z,99.90
2019-03-25T02:48:16.881Z,99.90
2019-03-25T02:50:48.177Z,99.90
2019-03-25T02:53:16.789Z,99.90
2019-03-25T02:55:48.057Z,99.90
2019-03-25T02:58:16.896Z,99.90
2019-03-25T03:00:45.403Z,99.90
2019-03-25T03:03:15.535Z,99.90
2019-03-25T03:05:47.088Z,99.90
2019-03-25T03:08:15.543Z,99.90
2019-03-25T03:10:44.042Z,99.90
2019-03-25T03:13:12.709Z,99.90
2019-03-25T03:15:45.286Z,99.90
2019-03-25T03:18:13.937Z,99.90
2019-03-25T03:20:43.710Z,99.90
2019-03-25T03:23:12.911Z,99.90
2019-03-25T03:25:56.425Z,99.90
2019-03-25T03:28:13.248Z,99.90
2019-03-25T03:30:41.917Z,99.90
2019-03-25T03:33:14.161Z,99.90
2019-03-25T03:35:48.506Z,99.90
2019-03-25T03:38:17.036Z,99.90
2019-03-25T03:40:46.323Z,99.90
2019-03-25T03:43:16.522Z,99.90
2019-03-25T03:45:44.989Z,99.90
2019-03-25T03:48:13.522Z,99.90
2019-03-25T03:50:42.568Z,99.90
2019-03-25T03:53:12.190Z,99.90
2019-03-25T03:55:42.366Z,99.90
2019-03-25T03:58:11.224Z,99.90
2019-03-25T04:00:40.959Z,99.90
2019-03-25T04:03:09.419Z,99.90
2019-03-25T04:05:39.875Z,99.90
2019-03-25T04:08:08.448Z,99.90
2019-03-25T04:10:37.036Z,99.90
2019-03-25T04:13:08.416Z,99.90
2019-03-25T04:15:42.305Z,99.90
2019-03-25T04:18:10.775Z,99.90
2019-03-25T04:20:42.078Z,99.90
2019-03-25T04:23:13.519Z,99.90
2019-03-25T04:25:42.080Z,99.90
2019-03-25T04:28:10.578Z,99.90
2019-03-25T04:30:39.138Z,99.90
2019-03-25T04:33:08.825Z,99.90
2019-03-25T04:35:37.295Z,99.90
2019-03-25T04:38:06.653Z,99.90
2019-03-25T04:40:35.140Z,99.90
2019-03-25T04:43:05.744Z,99.90
2019-03-25T04:45:34.320Z,99.90
2019-03-25T04:48:06.002Z,99.90
2019-03-25T04:50:34.450Z,99.90
2019-03-25T04:53:05.294Z,99.90
2019-03-25T04:55:33.791Z,99.90
2019-03-25T04:58:04.913Z,99.90
2019-03-25T05:00:34.916Z,99.90
2019-03-25T05:03:03.526Z,99.90
2019-03-25T05:05:31.995Z,99.90
2019-03-25T05:08:02.001Z,99.90
2019-03-25T05:10:30.558Z,99.90
2019-03-25T05:13:00.315Z,99.90
2019-03-25T05:15:28.846Z,99.90
2019-03-25T05:17:57.399Z,99.90
2019-03-25T05:20:26.162Z,99.90
2019-03-25T05:22:57.087Z,99.90
2019-03-25T05:25:25.602Z,99.90
2019-03-25T05:27:54.207Z,99.90
2019-03-25T05:30:23.051Z,99.90
2019-03-25T05:32:51.741Z,99.90
2019-03-25T05:35:20.315Z,99.90
2019-03-25T05:37:48.860Z,99.90
2019-03-25T05:40:18.677Z,99.90
2019-03-25T05:42:47.289Z,99.90
2019-03-25T05:45:15.751Z,99.90
2019-03-25T05:47:44.221Z,99.90
2019-03-25T05:50:12.812Z,99.90
2019-03-25T05:52:41.437Z,99.90
2019-03-25T05:55:10.403Z,99.90
2019-03-25T05:57:38.909Z,99.90
2019-03-25T06:00:09.941Z,99.90
2019-03-25T06:02:38.658Z,99.90
2019-03-25T06:05:08.563Z,99.90
2019-03-25T06:07:37.031Z,99.90
2019-03-25T06:10:06.933Z,99.90
2019-03-25T06:12:36.539Z,99.90
2019-03-25T06:15:08.171Z,99.90
2019-03-25T06:17:37.847Z,99.90
2019-03-25T06:20:08.461Z,99.90
2019-03-25T06:22:38.396Z,99.90
2019-03-25T06:25:09.597Z,99.90
2019-03-25T06:27:39.218Z,99.90
2019-03-25T06:30:11.901Z,99.90
2019-03-25T06:32:40.579Z,99.90
2019-03-25T06:35:10.268Z,99.90
2019-03-25T06:37:40.281Z,99.90
2019-03-25T06:40:09.788Z,99.90
2019-03-25T06:42:39.914Z,99.90
2019-03-25T06:45:09.001Z,99.90
2019-03-25T06:47:37.528Z,99.90
2019-03-25T06:50:08.431Z,99.90
2019-03-25T06:52:36.881Z,99.90
2019-03-25T06:55:09.022Z,99.90
2019-03-25T06:57:39.018Z,99.90
2019-03-25T07:00:11.980Z,99.90
2019-03-25T07:02:41.064Z,99.90
2019-03-25T07:05:18.808Z,99.90
2019-03-25T07:07:48.526Z,99.90
2019-03-25T07:10:31.218Z,99.90
2019-03-25T07:13:03.924Z,99.90
2019-03-25T07:15:53.200Z,99.90
2019-03-25T07:18:21.742Z,99.90
2019-03-25T07:20:50.508Z,99.90
2019-03-25T07:23:20.003Z,99.90
2019-03-25T07:25:49.508Z,99.90
2019-03-25T07:28:21.019Z,99.90
2019-03-25T07:30:50.740Z,99.90
2019-03-25T07:33:19.264Z,99.90
2019-03-25T07:35:49.065Z,99.90
2019-03-25T07:38:19.237Z,99.90
2019-03-25T07:40:48.698Z,99.90
2019-03-25T07:43:18.293Z,99.90
2019-03-25T07:45:46.830Z,99.90
2019-03-25T07:48:15.282Z,99.90
2019-03-25T07:50:43.806Z,99.90
2019-03-25T07:53:16.204Z,99.90
2019-03-25T07:55:44.674Z,99.90
2019-03-25T07:58:14.776Z,99.90
2019-03-25T08:00:46.258Z,99.90
2019-03-25T08:03:16.209Z,99.90
2019-03-25T08:05:44.728Z,99.90
2019-03-25T08:08:13.258Z,99.90
2019-03-25T08:10:41.779Z,99.90
2019-03-25T08:13:10.548Z,99.90
2019-03-25T08:15:39.580Z,99.90
2019-03-25T08:18:09.214Z,99.90
2019-03-25T08:20:37.770Z,99.90
2019-03-25T08:23:06.441Z,99.90
2019-03-25T08:25:36.438Z,99.90
2019-03-25T08:28:25.991Z,99.90
2019-03-25T08:30:57.460Z,99.90
2019-03-25T08:33:26.006Z,99.90
2019-03-25T08:35:54.551Z,99.90
2019-03-25T08:38:23.036Z,99.90
2019-03-25T08:40:51.496Z,99.90
2019-03-25T08:43:21.543Z,99.90
2019-03-25T08:45:50.138Z,99.90
2019-03-25T08:48:21.243Z,99.90
2019-03-25T08:50:49.814Z,99.90
2019-03-25T08:53:22.347Z,99.90
2019-03-25T08:55:50.792Z,99.90
2019-03-25T08:58:21.191Z,99.90
2019-03-25T09:00:50.737Z,99.90
2019-03-25T09:03:20.551Z,99.90
2019-03-25T09:05:49.538Z,99.90
2019-03-25T09:08:19.883Z,99.20
2019-03-25T09:10:52.710Z,99.80
2019-03-25T09:13:21.668Z,98.40
2019-03-25T09:15:51.690Z,96.50
2019-03-25T09:18:20.202Z,94.50
2019-03-25T09:20:49.515Z,95.40
2019-03-25T09:23:18.047Z,96.80
2019-03-25T09:25:46.577Z,97.50
2019-03-25T09:28:23.627Z,96.50
2019-03-25T09:30:54.357Z,97.20
2019-03-25T09:33:23.201Z,97.50
2019-03-25T09:36:11.330Z,97.10
2019-03-25T09:38:41.012Z,95.10
2019-03-25T09:41:11.163Z,92.50
2019-03-25T09:43:39.849Z,92.90
2019-03-25T09:46:08.563Z,92.90
2019-03-25T09:48:38.703Z,92.80
2019-03-25T09:51:07.784Z,92.50
2019-03-25T09:53:37.882Z,92.80
2019-03-25T09:56:06.705Z,88.10
2019-03-25T09:58:36.516Z,88.50
2019-03-25T10:01:05.855Z,90.00
2019-03-25T10:03:35.723Z,88.20
2019-03-25T10:06:04.420Z,90.90
2019-03-25T10:08:33.915Z,90.10
2019-03-25T10:11:03.677Z,87.10
2019-03-25T10:13:32.140Z,86.60
2019-03-25T10:16:00.651Z,80.60
2019-03-25T10:18:31.496Z,78.80
2019-03-25T10:21:01.341Z,81.40
2019-03-25T10:23:31.367Z,84.60
2019-03-25T10:26:00.617Z,90.20
2019-03-25T10:28:29.172Z,92.90
2019-03-25T10:30:57.704Z,95.80
2019-03-25T10:33:29.034Z,97.80
2019-03-25T10:35:57.514Z,99.90
2019-03-25T10:38:26.690Z,98.60
2019-03-25T10:40:59.490Z,95.20
2019-03-25T10:43:28.090Z,93.10
2019-03-25T10:45:56.653Z,92.70
2019-03-25T10:48:25.295Z,90.20
2019-03-25T10:50:53.798Z,82.60
2019-03-25T10:53:23.536Z,79.40
2019-03-25T10:55:52.000Z,72.80
2019-03-25T10:58:20.516Z,72.60
2019-03-25T11:00:49.119Z,72.90
2019-03-25T11:03:19.800Z,68.30
2019-03-25T11:05:48.837Z,71.50
2019-03-25T11:08:18.317Z,71.80
2019-03-25T11:10:46.900Z,83.50
2019-03-25T11:13:16.855Z,84.60
2019-03-25T11:15:45.504Z,90.60
2019-03-25T11:18:15.490Z,95.40
2019-03-25T11:20:43.971Z,98.80
2019-03-25T11:23:13.632Z,99.90
2019-03-25T11:25:44.249Z,99.90
2019-03-25T11:28:12.738Z,99.90
2019-03-25T11:30:52.665Z,99.90
2019-03-25T11:33:23.591Z,99.90
2019-03-25T11:35:52.218Z,99.90
2019-03-25T11:38:22.489Z,99.80
2019-03-25T11:40:54.477Z,96.50
2019-03-25T11:43:23.148Z,94.70
2019-03-25T11:45:54.613Z,93.10
2019-03-25T11:48:23.154Z,93.00
2019-03-25T11:50:51.723Z,92.90
2019-03-25T11:53:20.600Z,93.20
2019-03-25T11:55:49.052Z,94.70
2019-03-25T11:58:19.068Z,92.80
2019-03-25T12:00:47.604Z,92.70
2019-03-25T12:03:16.355Z,92.70
2019-03-25T12:05:44.848Z,92.70
2019-03-25T12:08:13.396Z,92.90
2019-03-25T12:10:43.526Z,95.00
2019-03-25T12:13:12.044Z,99.60
2019-03-25T12:15:40.564Z,99.90
2019-03-25T12:18:09.195Z,99.90
2019-03-25T12:20:37.697Z,99.90
2019-03-25T12:23:06.434Z,99.90
2019-03-25T12:25:34.951Z,99.90
2019-03-25T12:28:04.865Z,99.90
2019-03-25T12:30:33.339Z,99.90
2019-03-25T12:33:04.171Z,99.90
2019-03-25T12:35:32.947Z,99.90
2019-03-25T12:38:01.546Z,99.90
2019-03-25T12:40:30.080Z,99.90
2019-03-25T12:42:58.638Z,99.10
2019-03-25T12:45:28.509Z,93.40
2019-03-25T12:47:57.103Z,93.40
2019-03-25T12:50:26.685Z,93.40
2019-03-25T12:52:55.257Z,89.90
2019-03-25T12:55:23.825Z,86.20
2019-03-25T12:57:53.895Z,86.90
2019-03-25T13:00:43.602Z,90.00
2019-03-25T13:03:12.185Z,88.90
2019-03-25T13:05:40.916Z,91.00
2019-03-25T13:08:11.337Z,90.70
2019-03-25T13:10:39.861Z,90.10
2019-03-25T13:13:11.488Z,90.70
2019-03-25T13:15:40.025Z,91.60
2019-03-25T13:18:08.648Z,91.10
2019-03-25T13:20:38.359Z,90.00
2019-03-25T13:23:07.448Z,89.90
2019-03-25T13:25:39.635Z,90.00
2019-03-25T13:28:08.366Z,88.60
2019-03-25T13:30:38.756Z,88.50
2019-03-25T13:33:29.395Z,88.80
2019-03-25T13:35:57.347Z,90.30
2019-03-25T13:38:25.817Z,89.10
2019-03-25T13:40:59.363Z,87.00
2019-03-25T13:43:32.478Z,89.80
2019-03-25T13:46:05.748Z,90.00
2019-03-25T13:48:34.638Z,88.60
2019-03-25T13:51:03.317Z,90.00
2019-03-25T13:53:34.859Z,91.80
2019-03-25T13:56:06.078Z,88.00
2019-03-25T13:58:34.708Z,83.40
2019-03-25T14:01:03.214Z,83.30
2019-03-25T14:03:32.992Z,85.30
2019-03-25T14:06:01.497Z,86.00
2019-03-25T14:08:30.036Z,87.60
2019-03-25T14:11:03.967Z,90.20
2019-03-25T14:13:33.891Z,88.50
2019-03-25T14:16:02.391Z,89.40
2019-03-25T14:18:30.941Z,87.50
2019-03-25T14:21:00.435Z,85.90
2019-03-25T14:23:30.497Z,83.00
2019-03-25T14:25:58.986Z,80.50
2019-03-25T14:28:27.447Z,80.80
2019-03-25T14:30:59.999Z,87.70
2019-03-25T14:33:28.576Z,93.00
2019-03-25T14:35:58.296Z,94.50
2019-03-25T14:38:26.854Z,95.90
2019-03-25T14:40:58.275Z,97.10
2019-03-25T14:43:26.921Z,94.70
2019-03-25T14:45:55.375Z,94.10
2019-03-25T14:48:23.862Z,93.10
2019-03-25T14:50:56.229Z,92.70
2019-03-25T14:53:27.882Z,92.00
2019-03-25T14:55:56.518Z,91.60
2019-03-25T14:58:25.132Z,91.40
2019-03-25T15:00:53.755Z,91.80
2019-03-25T15:03:26.448Z,89.30
2019-03-25T15:05:54.944Z,89.70
2019-03-25T15:08:23.406Z,82.80
2019-03-25T15:10:53.838Z,82.10
2019-03-25T15:13:22.669Z,86.90
2019-03-25T15:15:51.138Z,90.50
2019-03-25T15:18:23.781Z,92.90
2019-03-25T15:20:52.280Z,92.80
2019-03-25T15:23:21.060Z,92.90
2019-03-25T15:25:50.529Z,92.90
2019-03-25T15:28:19.209Z,93.00
2019-03-25T15:30:49.212Z,92.20
2019-03-25T15:33:17.698Z,91.90
2019-03-25T15:35:48.402Z,90.60
2019-03-25T15:38:18.167Z,90.40
2019-03-25T15:40:48.170Z,91.30
2019-03-25T15:43:17.735Z,90.40
2019-03-25T15:45:46.334Z,91.50
2019-03-25T15:48:14.808Z,91.70
2019-03-25T15:50:43.306Z,91.40
2019-03-25T15:53:11.851Z,91.50
2019-03-25T15:55:40.392Z,91.20
2019-03-25T15:58:08.959Z,91.70
2019-03-25T16:00:46.895Z,91.50
2019-03-25T16:03:07.841Z,92.50
2019-03-25T16:05:36.341Z,92.90
2019-03-25T16:08:04.805Z,90.60
2019-03-25T16:10:33.277Z,90.40
2019-03-25T16:13:01.796Z,90.90
2019-03-25T16:15:43.347Z,91.40
2019-03-25T16:18:17.702Z,91.50
2019-03-25T16:20:47.701Z,90.80
2019-03-25T16:23:16.263Z,91.50
2019-03-25T16:25:45.131Z,91.70
2019-03-25T16:28:13.592Z,92.70
2019-03-25T16:30:43.413Z,91.50
2019-03-25T16:33:11.991Z,91.60
2019-03-25T16:35:41.441Z,91.50
2019-03-25T16:38:09.987Z,92.00
2019-03-25T16:40:41.685Z,91.80
2019-03-25T16:43:10.333Z,92.60
2019-03-25T16:45:42.047Z,91.80
2019-03-25T16:48:10.541Z,92.50
2019-03-25T16:50:39.069Z,92.90
2019-03-25T16:53:08.679Z,92.80
2019-03-25T16:55:37.187Z,92.80
2019-03-25T16:58:05.711Z,92.80
2019-03-25T17:00:37.037Z,92.80
2019-03-25T17:03:05.765Z,92.80
2019-03-25T17:05:36.579Z,92.80
2019-03-25T17:08:08.011Z,92.90
2019-03-25T17:10:36.513Z,92.80
2019-03-25T17:13:10.629Z,92.80
2019-03-25T17:15:39.300Z,92.80
2019-03-25T17:18:10.587Z,92.90
2019-03-25T17:20:40.196Z,92.80
2019-03-25T17:23:10.981Z,92.80
2019-03-25T17:25:39.455Z,92.80
2019-03-25T17:28:08.039Z,92.70
2019-03-25T17:30:37.595Z,92.70
2019-03-25T17:33:10.757Z,92.60
2019-03-25T17:35:39.324Z,92.60
2019-03-25T17:38:08.200Z,92.60
2019-03-25T17:40:39.884Z,92.60
2019-03-25T17:43:18.958Z,92.60
2019-03-25T17:45:47.526Z,92.60
2019-03-25T17:48:16.159Z,92.50
2019-03-25T17:50:46.090Z,93.40
2019-03-25T17:53:16.119Z,94.20
2019-03-25T17:55:45.802Z,94.80
2019-03-25T17:58:14.278Z,95.20
2019-03-25T18:00:51.661Z,95.40
2019-03-25T18:03:21.105Z,95.90
2019-03-25T18:05:52.056Z,96.20
2019-03-25T18:08:20.559Z,96.70
2019-03-25T18:10:50.932Z,96.90
2019-03-25T18:13:22.498Z,96.90
2019-03-25T18:15:52.492Z,97.10
2019-03-25T18:18:20.960Z,97.40
2019-03-25T18:20:52.241Z,97.70
2019-03-25T18:23:21.800Z,97.80
2019-03-25T18:25:51.935Z,98.50
2019-03-25T18:28:23.578Z,99.10
2019-03-25T18:30:54.837Z,99.10
2019-03-25T18:33:23.471Z,99.50
2019-03-25T18:35:51.924Z,99.90
2019-03-25T18:38:22.022Z,99.90
2019-03-25T18:40:51.844Z,99.90
2019-03-25T18:43:21.506Z,99.90
2019-03-25T18:45:50.939Z,99.90
2019-03-25T18:48:19.498Z,99.90
2019-03-25T18:50:48.054Z,99.90
2019-03-25T18:53:19.666Z,99.90
2019-03-25T18:55:49.885Z,99.90
2019-03-25T18:58:18.449Z,99.90
2019-03-25T19:00:48.512Z,99.90
2019-03-25T19:03:19.890Z,99.90
2019-03-25T19:05:49.576Z,99.90
2019-03-25T19:08:20.146Z,99.90
2019-03-25T19:10:48.701Z,99.90
2019-03-25T19:13:19.675Z,99.90
2019-03-25T19:15:48.389Z,99.90
2019-03-25T19:18:20.596Z,99.90
2019-03-25T19:20:49.252Z,99.90
2019-03-25T19:23:17.820Z,99.90
2019-03-25T19:25:46.345Z,99.90
2019-03-25T19:28:14.870Z,99.90
2019-03-25T19:30:43.332Z,99.90
2019-03-25T19:33:12.998Z,99.90
2019-03-25T19:35:41.623Z,99.90
2019-03-25T19:38:14.906Z,99.90
2019-03-25T19:40:44.702Z,99.90
2019-03-25T19:43:16.059Z,99.90
2019-03-25T19:45:45.659Z,99.90
2019-03-25T19:48:15.088Z,99.90
2019-03-25T19:50:43.637Z,99.90
2019-03-25T19:53:18.974Z,99.90
2019-03-25T19:55:42.427Z,99.90
2019-03-25T19:58:10.943Z,99.90
2019-03-25T20:00:40.722Z,99.90
2019-03-25T20:03:09.633Z,99.90
2019-03-25T20:05:39.703Z,99.90
2019-03-25T20:08:08.203Z,99.90
2019-03-25T20:10:37.738Z,99.90
2019-03-25T20:13:06.608Z,99.90
2019-03-25T20:15:45.392Z,99.90
2019-03-25T20:18:08.685Z,99.90
2019-03-25T20:20:37.149Z,99.90
2019-03-25T20:23:09.725Z,99.90
2019-03-25T20:25:39.486Z,99.90
2019-03-25T20:28:08.065Z,99.90
2019-03-25T20:30:39.831Z,99.90
2019-03-25T20:33:08.444Z,99.90
2019-03-25T20:35:36.962Z,99.90
2019-03-25T20:38:05.518Z,99.90
2019-03-25T20:40:34.113Z,99.90
2019-03-25T20:43:02.597Z,99.90
2019-03-25T20:45:31.183Z,99.90
2019-03-25T20:47:59.772Z,99.90
2019-03-25T20:50:28.331Z,99.90
2019-03-25T20:52:58.000Z,99.90
2019-03-25T20:55:27.690Z,99.90
2019-03-25T20:57:58.067Z,99.90
2019-03-25T21:00:46.828Z,99.90
2019-03-25T21:03:16.824Z,99.90
2019-03-25T21:05:45.424Z,99.90
2019-03-25T21:08:14.335Z,99.90
2019-03-25T21:10:45.668Z,99.90
2019-03-25T21:13:14.456Z,99.90
2019-03-25T21:15:42.960Z,99.90
2019-03-25T21:18:11.497Z,99.90
2019-03-25T21:20:42.327Z,99.90
2019-03-25T21:23:10.832Z,99.90
2019-03-25T21:25:39.475Z,99.90
2019-03-25T21:28:07.958Z,99.90
2019-03-25T21:30:47.864Z,99.90
2019-03-25T21:33:08.498Z,99.90
2019-03-25T21:35:38.207Z,99.90
2019-03-25T21:38:06.788Z,99.90
2019-03-25T21:40:38.299Z,99.90
2019-03-25T21:43:09.662Z,99.90
2019-03-25T21:45:38.298Z,99.90
2019-03-25T21:48:09.171Z,99.90
2019-03-25T21:50:37.776Z,99.90
2019-03-25T21:53:09.701Z,99.90
2019-03-25T21:55:40.942Z,99.90
2019-03-25T21:58:09.570Z,99.90
2019-03-25T22:00:39.503Z,99.90
2019-03-25T22:03:12.099Z,99.90
2019-03-25T22:05:42.394Z,99.90
2019-03-25T22:08:10.924Z,99.90
2019-03-25T22:10:43.223Z,99.90
2019-03-25T22:13:17.113Z,99.90
2019-03-25T22:15:45.667Z,99.90
2019-03-25T22:18:15.328Z,99.90
2019-03-25T22:20:43.813Z,99.90
2019-03-25T22:23:14.839Z,99.90
2019-03-25T22:25:43.314Z,99.90
2019-03-25T22:28:12.084Z,99.90
2019-03-25T22:33:25.626Z,99.90
2019-03-25T22:35:48.870Z,99.90
2019-03-25T22:38:20.473Z,99.90
2019-03-25T22:40:47.547Z,99.90
2019-03-25T22:43:16.479Z,99.90
2019-03-25T22:45:48.768Z,99.90
2019-03-25T22:48:17.238Z,99.90
2019-03-25T22:50:49.900Z,99.90
2019-03-25T22:53:19.373Z,99.90
2019-03-25T22:55:47.878Z,99.90
2019-03-25T22:58:17.890Z,99.90
2019-03-25T23:00:46.971Z,99.90
2019-03-25T23:03:15.957Z,99.90
2019-03-25T23:05:47.327Z,99.90
2019-03-25T23:08:24.809Z,99.90
2019-03-25T23:10:53.308Z,99.90
2019-03-25T23:13:24.522Z,99.90
2019-03-25T23:15:57.503Z,99.90
2019-03-25T23:18:26.937Z,99.90
2019-03-25T23:20:56.979Z,99.90
2019-03-25T23:23:25.447Z,99.90
2019-03-25T23:25:54.450Z,99.90
2019-03-25T23:28:24.455Z,99.90
2019-03-25T23:30:55.446Z,99.90
2019-03-25T23:33:24.069Z,99.90
2019-03-25T23:35:52.614Z,99.90
2019-03-25T23:38:23.787Z,99.90
2019-03-25T23:40:53.769Z,99.90
2019-03-25T23:43:22.453Z,99.90
2019-03-25T23:45:56.174Z,99.90
2019-03-25T23:48:27.197Z,99.90
2019-03-25T23:50:56.437Z,99.90
2019-03-25T23:53:24.936Z,99.90
2019-03-25T23:55:53.466Z,99.90
2019-03-25T23:58:30.493Z,99.90
